Time;durP1;ratioP1;P1;durP2;ratioP2;P2;SDS_P1;SDS_P2;PMS_P1;PMS_P2;Temp;Humidity;BMP_temperature;BMP_pressure;BME280_temperature;BME280_humidity;BME280_pressure;Samples;Min_cycle;Max_cycle;Signal;HPM_P1;HPM_P2
2021/09/16 00:01:40;;;;;;;26.40;13.77;;;;;;;17.71;65.98;100756.29;126312;1099;104172;-79
2021/09/16 00:04:11;;;;;;;28.57;14.27;;;;;;;17.70;65.75;100751.84;126286;1099;104159;-78
2021/09/16 00:06:43;;;;;;;29.50;14.10;;;;;;;17.66;65.92;100745.63;126267;1099;104332;-79
2021/09/16 00:09:14;;;;;;;28.57;14.30;;;;;;;17.64;65.82;100746.47;126310;1099;117669;-79
2021/09/16 00:11:45;;;;;;;29.20;13.73;;;;;;;17.63;66.21;100740.28;126290;1099;104833;-80
2021/09/16 00:14:16;;;;;;;25.23;13.77;;;;;;;17.65;66.36;100734.99;126311;1099;104133;-80
2021/09/16 00:16:50;;;;;;;27.23;13.90;;;;;;;17.67;66.43;100733.23;126316;1099;104207;-79
2021/09/16 00:19:26;;;;;;;27.07;13.60;;;;;;;17.68;66.28;100732.37;126359;1099;104168;-79
2021/09/16 00:21:57;;;;;;;28.43;14.00;;;;;;;17.67;66.29;100726.19;126327;1099;104228;-79
2021/09/16 00:24:28;;;;;;;27.90;14.27;;;;;;;17.64;66.41;100722.59;126297;1099;104146;-78
2021/09/16 00:26:58;;;;;;;29.17;13.70;;;;;;;17.63;65.94;100726.14;126366;1099;104143;-79
2021/09/16 00:29:29;;;;;;;28.63;15.60;;;;;;;17.58;66.24;100721.66;126279;1098;104149;-80
2021/09/16 00:32:00;;;;;;;25.53;14.20;;;;;;;17.56;66.62;100722.50;126343;1099;104150;-80
2021/09/16 00:34:31;;;;;;;28.73;14.77;;;;;;;17.54;66.28;100718.95;126321;1099;104153;-80
2021/09/16 00:37:01;;;;;;;30.53;15.87;;;;;;;17.54;66.25;100719.84;126331;1099;104319;-78
2021/09/16 00:39:33;;;;;;;30.17;14.30;;;;;;;17.55;66.70;100713.67;126277;1099;104156;-80
2021/09/16 00:42:05;;;;;;;28.90;15.33;;;;;;;17.54;66.69;100719.84;126355;1099;104731;-80
2021/09/16 00:44:37;;;;;;;25.83;14.03;;;;;;;17.50;66.86;100707.44;126305;1099;104201;-80
2021/09/16 00:47:08;;;;;;;27.37;14.97;;;;;;;17.50;67.00;100720.70;126345;1099;104141;-80
2021/09/16 00:49:39;;;;;;;26.53;14.87;;;;;;;17.47;66.94;100718.02;126259;1099;104341;-79
2021/09/16 00:52:12;;;;;;;27.00;14.40;;;;;;;17.39;66.57;100720.58;126330;1096;104300;-80
2021/09/16 00:54:46;;;;;;;28.95;14.60;;;;;;;17.32;67.17;100718.72;126356;1099;104220;-79
2021/09/16 00:57:19;;;;;;;30.17;14.50;;;;;;;17.27;67.14;100719.56;126337;1097;104223;-79
2021/09/16 00:59:51;;;;;;;29.97;15.80;;;;;;;17.18;67.21;100725.63;126319;1099;104682;-80
2021/09/16 01:02:22;;;;;;;31.50;16.93;;;;;;;17.10;66.89;100719.34;126308;1099;104337;-78
2021/09/16 01:04:53;;;;;;;29.63;15.20;;;;;;;17.04;67.04;100726.33;126349;1099;104463;-79
2021/09/16 01:07:25;;;;;;;33.87;16.93;;;;;;;17.02;67.13;100724.55;126317;1099;104214;-79
2021/09/16 01:09:57;;;;;;;30.70;16.10;;;;;;;17.03;67.51;100719.27;126324;1099;104185;-79
2021/09/16 01:12:28;;;;;;;33.57;17.43;;;;;;;17.06;67.72;100716.66;126333;1099;104172;-78
2021/09/16 01:14:58;;;;;;;32.60;16.73;;;;;;;17.05;67.56;100714.86;126246;1099;104319;-78
2021/09/16 01:17:29;;;;;;;32.43;17.17;;;;;;;17.04;67.56;100710.42;126247;1099;104357;-80
2021/09/16 01:20:00;;;;;;;31.45;16.15;;;;;;;17.02;67.78;100717.48;126243;1099;104181;-78
2021/09/16 01:22:33;;;;;;;31.27;16.17;;;;;;;17.01;67.53;100720.98;126334;1099;104223;-78
2021/09/16 01:25:05;;;;;;;34.33;17.13;;;;;;;16.98;67.55;100717.41;126364;1099;104171;-80
2021/09/16 01:27:36;;;;;;;29.97;16.60;;;;;;;16.97;67.61;100723.58;126303;1099;104618;-79
2021/09/16 01:30:08;;;;;;;31.83;16.83;;;;;;;16.95;67.88;100718.25;126336;1099;104233;-79
2021/09/16 01:32:39;;;;;;;32.07;16.67;;;;;;;16.94;67.79;100727.10;126351;1099;105115;-79
2021/09/16 01:35:11;;;;;;;30.83;15.93;;;;;;;16.96;68.39;100732.42;126349;1099;104249;-78
2021/09/16 01:37:42;;;;;;;28.90;15.77;;;;;;;16.93;68.06;100732.38;126317;1099;104169;-78
2021/09/16 01:40:14;;;;;;;30.17;16.53;;;;;;;16.93;68.18;100729.73;126265;1099;105215;-79
2021/09/16 01:42:46;;;;;;;31.43;16.03;;;;;;;16.93;67.99;100727.08;126348;1099;104192;-79
2021/09/16 01:45:19;;;;;;;33.10;16.43;;;;;;;16.93;68.42;100724.43;126317;1099;104188;-79
2021/09/16 01:47:51;;;;;;;32.37;17.20;;;;;;;16.91;68.00;100723.50;126335;1098;104137;-78
2021/09/16 01:50:23;;;;;;;30.83;16.63;;;;;;;16.91;68.17;100731.45;126276;1098;104166;-80
2021/09/16 01:52:54;;;;;;;31.20;17.27;;;;;;;16.91;68.40;100732.36;126352;1099;104146;-79
2021/09/16 01:55:26;;;;;;;29.67;16.50;;;;;;;16.89;68.14;100729.69;126322;1097;104139;-80
2021/09/16 01:57:56;;;;;;;28.30;16.30;;;;;;;16.85;68.31;100733.13;126353;1099;104254;-79
2021/09/16 02:00:27;;;;;;;30.03;17.03;;;;;;;16.78;68.29;100731.28;126308;1099;104140;-80
2021/09/16 02:02:59;;;;;;;35.60;16.97;;;;;;;16.75;68.59;100728.58;126366;1099;104158;-79
2021/09/16 02:05:29;;;;;;;31.00;16.45;;;;;;;16.73;68.72;100740.02;126278;1099;104178;-79
2021/09/16 02:08:02;;;;;;;32.00;17.30;;;;;;;16.73;68.31;100732.95;126328;1099;104216;-80
2021/09/16 02:10:33;;;;;;;31.07;16.57;;;;;;;16.73;68.35;100743.55;126194;1099;104249;-79
2021/09/16 02:13:04;;;;;;;32.33;17.30;;;;;;;16.69;68.61;100745.27;126311;1099;104192;-80
2021/09/16 02:15:35;;;;;;;31.37;16.40;;;;;;;16.71;69.12;100730.28;126324;1099;104219;-79
2021/09/16 02:18:05;;;;;;;32.53;16.30;;;;;;;16.74;68.75;100745.34;126313;1099;104223;-80
2021/09/16 02:20:37;;;;;;;28.83;15.70;;;;;;;16.76;69.06;100735.64;126261;1099;104274;-79
2021/09/16 02:23:08;;;;;;;33.40;17.90;;;;;;;16.76;69.27;100748.02;126328;1099;104203;-80
2021/09/16 02:25:40;;;;;;;29.93;17.20;;;;;;;16.76;68.74;100748.02;126327;1099;104270;-80
2021/09/16 02:28:12;;;;;;;31.53;17.07;;;;;;;16.78;69.13;100755.13;126333;1098;104216;-79
2021/09/16 02:30:43;;;;;;;31.03;16.50;;;;;;;16.74;69.20;100747.98;126271;1099;104147;-78
2021/09/16 02:33:14;;;;;;;33.37;15.90;;;;;;;16.70;68.80;100749.71;126319;1099;104198;-79
2021/09/16 02:35:51;;;;;;;29.97;15.00;;;;;;;16.66;69.45;100747.88;126315;1098;104566;-79
2021/09/16 02:38:24;;;;;;;28.67;15.80;;;;;;;16.61;69.42;100748.66;126351;1099;104165;-79
2021/09/16 02:40:54;;;;;;;29.50;14.90;;;;;;;16.58;69.72;100748.62;126267;1099;105473;-79
2021/09/16 02:43:25;;;;;;;29.70;15.80;;;;;;;16.58;69.30;100745.97;126260;1099;104177;-78
2021/09/16 02:45:56;;;;;;;30.93;15.67;;;;;;;16.59;69.47;100753.06;126366;1099;104195;-79
2021/09/16 02:48:27;;;;;;;29.53;16.77;;;;;;;16.57;69.65;100746.86;126295;1099;105226;-78
2021/09/16 02:50:58;;;;;;;31.63;16.97;;;;;;;16.56;69.08;100745.94;126309;1099;104232;-79
2021/09/16 02:53:28;;;;;;;29.50;15.80;;;;;;;16.55;69.71;100746.84;126281;1099;104146;-79
2021/09/16 02:55:59;;;;;;;31.27;16.10;;;;;;;16.52;69.89;100747.66;126290;1097;104198;-78
2021/09/16 02:58:30;;;;;;;32.67;15.70;;;;;;;16.51;69.79;100742.34;126338;1099;104172;-78
2021/09/16 03:01:00;;;;;;;29.50;15.03;;;;;;;16.47;69.24;100744.06;126272;1099;104146;-78
2021/09/16 03:03:31;;;;;;;30.60;15.20;;;;;;;16.46;70.01;100744.05;126328;1099;104152;-79
2021/09/16 03:06:02;;;;;;;29.77;15.47;;;;;;;16.46;69.91;100738.75;126318;1099;104153;-78
2021/09/16 03:08:32;;;;;;;29.20;15.50;;;;;;;16.43;70.07;100738.70;126319;1099;104152;-79
2021/09/16 03:11:03;;;;;;;30.07;14.73;;;;;;;16.41;70.04;100738.67;126264;1099;104310;-78
2021/09/16 03:13:34;;;;;;;26.93;15.37;;;;;;;16.39;69.37;100740.38;126309;1099;104155;-79
2021/09/16 03:16:06;;;;;;;32.03;16.47;;;;;;;16.36;70.24;100735.04;126346;1099;105175;-79
2021/09/16 03:18:36;;;;;;;30.50;15.70;;;;;;;16.33;69.72;100732.34;126355;1099;104197;-78
2021/09/16 03:21:07;;;;;;;32.70;16.57;;;;;;;16.25;69.80;100736.63;126207;1099;104251;-79
2021/09/16 03:23:38;;;;;;;28.73;15.57;;;;;;;16.24;69.67;100738.40;126351;1099;104140;-78
2021/09/16 03:26:09;;;;;;;29.40;16.07;;;;;;;16.23;70.04;100738.37;126292;1099;104245;-79
2021/09/16 03:28:40;;;;;;;31.73;16.20;;;;;;;16.21;70.45;100740.12;126328;1099;104252;-79
2021/09/16 03:31:11;;;;;;;30.23;15.67;;;;;;;16.23;69.82;100741.02;126307;1096;105627;-79
2021/09/16 03:33:41;;;;;;;36.87;15.77;;;;;;;16.22;70.14;100745.44;126327;1099;104284;-80
2021/09/16 03:36:12;;;;;;;29.30;14.70;;;;;;;16.21;69.62;100742.77;126333;1099;104192;-78
2021/09/16 03:38:43;;;;;;;29.37;15.13;;;;;;;16.21;70.09;100751.59;126328;1097;104156;-78
2021/09/16 03:41:14;;;;;;;27.90;14.63;;;;;;;16.18;70.54;100744.47;126274;1099;104243;-77
2021/09/16 03:43:44;;;;;;;29.03;14.77;;;;;;;16.19;70.44;100745.39;126297;1099;104143;-78
2021/09/16 03:46:15;;;;;;;28.47;14.60;;;;;;;16.17;69.72;100742.72;126266;1097;104300;-78
2021/09/16 03:48:46;;;;;;;29.10;15.27;;;;;;;16.18;69.77;100740.95;126341;1099;104596;-79
2021/09/16 03:51:17;;;;;;;27.47;14.70;;;;;;;16.17;70.64;100742.72;126294;1099;104245;-78
2021/09/16 03:53:47;;;;;;;29.90;15.17;;;;;;;16.18;70.30;100744.47;126364;1098;104144;-78
2021/09/16 03:56:18;;;;;;;25.10;13.73;;;;;;;16.19;70.30;100748.03;126340;1097;104223;-78
2021/09/16 03:58:49;;;;;;;29.63;15.33;;;;;;;16.19;70.11;100750.68;126298;1099;104150;-79
2021/09/16 04:01:19;;;;;;;36.97;15.67;;;;;;;16.18;69.84;100752.41;126285;1099;104206;-79
2021/09/16 04:03:50;;;;;;;32.83;16.40;;;;;;;16.16;70.50;100756.80;126259;1099;112888;-78
2021/09/16 04:06:21;;;;;;;30.83;16.43;;;;;;;16.15;70.63;100760.30;126377;1099;104259;-79
2021/09/16 04:08:51;;;;;;;32.10;15.23;;;;;;;16.11;70.36;100768.17;126310;1099;104139;-78
2021/09/16 04:11:22;;;;;;;27.97;14.23;;;;;;;16.02;69.68;100771.56;126195;1099;104195;-77
2021/09/16 04:13:53;;;;;;;32.13;15.17;;;;;;;15.93;69.92;100772.28;126270;1099;104140;-77
2021/09/16 04:16:24;;;;;;;29.47;15.60;;;;;;;15.85;70.74;100768.61;126319;1099;104290;-78
2021/09/16 04:18:55;;;;;;;31.70;15.57;;;;;;;15.81;69.89;100774.70;126327;1099;104226;-79
2021/09/16 04:21:26;;;;;;;37.40;17.87;;;;;;;15.73;70.53;100765.70;126371;1099;104191;-78
2021/09/16 04:23:57;;;;;;;34.03;17.27;;;;;;;15.66;70.86;100774.38;126252;1099;104191;-81
2021/09/16 04:26:28;;;;;;;39.00;16.33;;;;;;;15.59;70.33;100768.08;126284;1098;104271;-80
2021/09/16 04:28:59;;;;;;;35.53;17.67;;;;;;;15.54;70.92;100767.11;126322;1099;104338;-81
2021/09/16 04:31:31;;;;;;;37.90;17.77;;;;;;;15.51;71.34;100780.27;126269;1099;104143;-80
2021/09/16 04:34:02;;;;;;;40.50;19.33;;;;;;;15.53;70.49;100770.61;126172;1099;104162;-79
2021/09/16 04:36:34;;;;;;;33.13;18.00;;;;;;;15.57;70.67;100777.75;126307;1099;104823;-79
2021/09/16 04:39:07;;;;;;;32.70;17.00;;;;;;;15.56;70.36;100768.02;126349;1099;104268;-79
2021/09/16 04:41:38;;;;;;;29.43;16.27;;;;;;;15.55;70.60;100775.07;126287;1099;104210;-79
2021/09/16 04:44:09;;;;;;;36.00;16.67;;;;;;;15.54;71.99;100780.33;126254;1099;104278;-79
2021/09/16 04:46:39;;;;;;;32.33;16.70;;;;;;;15.51;71.52;100786.44;126269;1099;104286;-78
2021/09/16 04:49:10;;;;;;;43.90;18.33;;;;;;;15.49;71.14;100781.97;126299;1099;104338;-77
2021/09/16 04:51:41;;;;;;;42.53;17.93;;;;;;;15.45;72.06;100771.33;126245;1099;104147;-79
2021/09/16 04:54:12;;;;;;;37.17;17.27;;;;;;;15.43;72.06;100773.06;126231;1099;104297;-78
2021/09/16 04:56:42;;;;;;;34.83;17.73;;;;;;;15.44;71.86;100771.30;126268;1099;104214;-80
2021/09/16 04:59:14;;;;;;;35.00;16.90;;;;;;;15.46;71.42;100762.55;126099;1099;104326;-78
2021/09/16 05:01:46;;;;;;;33.10;16.40;;;;;;;15.55;71.85;100766.22;126154;1098;104172;-78
2021/09/16 05:04:20;;;;;;;39.23;15.37;;;;;;;15.57;71.83;100760.11;126042;1099;104306;-78
2021/09/16 05:06:51;;;;;;;34.07;15.63;;;;;;;15.64;71.51;100766.41;126151;1099;105311;-78
2021/09/16 05:09:22;;;;;;;30.90;15.80;;;;;;;15.67;71.42;100761.17;126329;1099;104179;-79
2021/09/16 05:11:53;;;;;;;37.97;17.10;;;;;;;15.72;71.73;100770.11;126316;1099;104230;-78
2021/09/16 05:14:24;;;;;;;33.37;16.87;;;;;;;15.76;72.17;100766.64;126226;1099;104191;-79
2021/09/16 05:16:55;;;;;;;36.50;16.37;;;;;;;15.79;72.29;100771.14;126249;1099;105248;-78
2021/09/16 05:19:26;;;;;;;33.13;16.47;;;;;;;15.79;71.53;100764.09;126120;1099;104169;-77
2021/09/16 05:21:57;;;;;;;33.00;16.55;;;;;;;15.83;71.56;100764.14;126210;1098;104178;-77
2021/09/16 05:24:27;;;;;;;31.07;17.33;;;;;;;15.87;71.70;100763.34;126149;1097;104130;-78
2021/09/16 05:26:59;;;;;;;31.13;15.77;;;;;;;15.93;71.63;100768.75;126097;1099;104194;-76
2021/09/16 05:29:32;;;;;;;32.93;16.93;;;;;;;16.01;71.98;100774.19;126200;1099;104210;-79
2021/09/16 05:32:07;;;;;;;35.67;17.83;;;;;;;16.04;71.81;100772.47;126001;1099;104210;-78
2021/09/16 05:34:55;;;;;;;31.60;16.80;;;;;;;16.09;71.58;100775.20;125912;1099;104156;-76
2021/09/16 05:37:29;;;;;;;32.15;17.00;;;;;;;16.13;71.76;100775.28;126032;1099;104249;-76
2021/09/16 05:40:03;;;;;;;35.53;17.23;;;;;;;16.18;72.54;100778.89;126249;1097;104347;-78
2021/09/16 05:42:37;;;;;;;35.10;17.55;;;;;;;16.27;72.47;100771.99;126114;1099;104220;-78
2021/09/16 05:45:12;;;;;;;30.90;16.63;;;;;;;16.33;71.91;100780.92;125890;1099;104306;-78
2021/09/16 05:47:43;;;;;;;28.93;17.43;;;;;;;16.40;71.94;100783.67;125980;1099;104245;-78
2021/09/16 05:50:20;;;;;;;34.07;16.37;;;;;;;16.46;71.89;100775.83;126146;1098;104243;-80
2021/09/16 05:52:53;;;;;;;31.87;16.53;;;;;;;16.56;71.77;100779.50;125941;1099;104194;-78
2021/09/16 05:55:28;;;;;;;36.37;16.83;;;;;;;16.65;72.23;100772.58;126070;1099;104165;-78
2021/09/16 05:58:01;;;;;;;32.07;17.03;;;;;;;16.73;71.99;100779.77;125967;1099;104160;-77
2021/09/16 06:00:36;;;;;;;30.90;17.17;;;;;;;16.81;72.01;100779.02;125938;1098;104191;-78
2021/09/16 06:03:09;;;;;;;31.40;16.70;;;;;;;16.87;72.12;100779.11;125853;1099;104156;-77
2021/09/16 06:05:43;;;;;;;34.27;17.05;;;;;;;16.98;71.78;100773.08;125944;1099;104171;-77
2021/09/16 06:08:15;;;;;;;34.33;17.47;;;;;;;17.10;71.35;100767.07;125920;1099;104287;-76
2021/09/16 06:10:50;;;;;;;33.53;16.80;;;;;;;17.22;71.76;100764.58;125932;1098;104172;-76
2021/09/16 06:13:23;;;;;;;;;;;;;;;17.30;70.94;100772.63;126028;1098;104318;-78
2021/09/16 06:15:58;;;;;;;39.53;20.43;;;;;;;17.37;71.01;100774.47;125940;1099;104264;-76
2021/09/16 06:18:28;;;;;;;;;;;;;;;17.47;70.79;100760.45;126009;1099;104194;-79
2021/09/16 06:21:00;;;;;;;36.10;19.37;;;;;;;17.57;71.07;100767.62;125915;1099;104280;-77
2021/09/16 06:23:34;;;;;;;33.75;18.62;;;;;;;17.68;70.76;100766.88;126054;1099;104200;-76
2021/09/16 06:26:09;;;;;;;33.80;17.67;;;;;;;17.77;70.34;100761.66;125972;1098;104214;-77
2021/09/16 06:28:51;;;;;;;32.03;16.33;;;;;;;17.88;70.07;100760.03;125280;1099;104206;-79
2021/09/16 06:31:24;;;;;;;30.13;16.43;;;;;;;18.02;70.12;100764.59;125936;1099;104225;-76
2021/09/16 06:33:56;;;;;;;24.30;13.77;;;;;;;18.11;69.73;100759.37;125257;1099;104217;-77
2021/09/16 06:36:29;;;;;;;27.43;14.07;;;;;;;18.21;69.34;100765.64;125868;1099;104290;-75
2021/09/16 06:39:05;;;;;;;29.70;15.47;;;;;;;18.30;68.95;100771.03;125966;1099;104197;-77
2021/09/16 06:41:38;;;;;;;27.83;16.50;;;;;;;18.39;68.99;100770.23;125951;1099;104265;-78
2021/09/16 06:44:10;;;;;;;31.03;17.07;;;;;;;18.47;68.67;100773.83;126049;1099;104290;-75
2021/09/16 06:46:42;;;;;;;31.17;16.87;;;;;;;18.55;68.62;100777.42;125321;1099;104166;-76
2021/09/16 06:49:20;;;;;;;30.07;15.87;;;;;;;18.68;68.42;100784.62;126159;1099;104191;-78
2021/09/16 06:51:51;;;;;;;28.97;15.70;;;;;;;18.79;68.24;100786.44;126154;1099;104399;-78
2021/09/16 06:54:21;;;;;;;27.77;14.57;;;;;;;18.88;67.64;100783.88;126059;1099;104344;-78
2021/09/16 06:56:54;;;;;;;27.23;13.90;;;;;;;19.00;67.53;100781.30;125206;1099;104258;-79
2021/09/16 06:59:26;;;;;;;30.00;15.53;;;;;;;19.10;67.24;100795.52;125996;1099;104373;-77
2021/09/16 07:01:57;;;;;;;29.13;15.50;;;;;;;19.18;67.13;100793.81;126158;1099;104300;-77
2021/09/16 07:04:34;;;;;;;30.75;14.35;;;;;;;19.29;67.23;100799.19;126128;1099;104252;-79
2021/09/16 07:07:06;;;;;;;29.30;13.70;;;;;;;19.37;66.56;100796.56;125987;1097;104244;-77
2021/09/16 07:09:39;;;;;;;31.23;14.40;;;;;;;19.48;65.83;100792.16;126035;1099;104214;-77
2021/09/16 07:12:14;;;;;;;31.27;14.43;;;;;;;19.58;65.96;100804.59;126258;1099;105001;-77
2021/09/16 07:14:49;;;;;;;31.27;14.93;;;;;;;19.70;65.69;100801.10;126247;1098;104187;-76
2021/09/16 07:17:20;;;;;;;29.52;13.32;;;;;;;19.83;65.51;100801.17;125962;1099;104136;-76
2021/09/16 07:19:54;;;;;;;25.77;13.75;;;;;;;19.95;65.14;100809.19;126238;1098;104210;-77
2021/09/16 07:22:25;;;;;;;28.70;13.20;;;;;;;20.05;64.74;100805.63;126233;1099;104169;-78
2021/09/16 07:24:57;;;;;;;28.43;12.87;;;;;;;20.19;65.07;100810.98;126273;1099;104236;-77
2021/09/16 07:27:30;;;;;;;32.03;13.03;;;;;;;20.31;64.05;100802.13;126270;1099;104194;-78
2021/09/16 07:30:03;;;;;;;28.37;12.50;;;;;;;20.43;64.62;100804.80;126347;1099;104143;-77
2021/09/16 07:32:36;;;;;;;26.43;11.83;;;;;;;20.56;64.67;100808.34;126286;1097;104217;-78
2021/09/16 07:35:09;;;;;;;25.77;12.53;;;;;;;20.70;60.72;100811.03;126205;1099;104566;-78
2021/09/16 07:37:41;;;;;;;27.80;11.97;;;;;;;20.83;63.50;100804.80;126241;1098;104155;-79
2021/09/16 07:40:15;;;;;;;24.17;11.87;;;;;;;20.96;62.08;100810.11;126111;1099;104162;-78
2021/09/16 07:42:51;;;;;;;25.20;11.70;;;;;;;21.07;62.01;100810.97;126046;1099;104350;-76
2021/09/16 07:45:23;;;;;;;24.23;10.93;;;;;;;21.20;62.87;100793.13;126110;1099;104162;-77
2021/09/16 07:47:55;;;;;;;25.60;11.22;;;;;;;21.31;62.22;100795.77;126053;1099;104271;-75
2021/09/16 07:50:29;;;;;;;27.17;11.90;;;;;;;21.42;62.41;100793.93;126088;1099;104242;-78
2021/09/16 07:53:01;;;;;;;32.13;12.07;;;;;;;21.56;61.42;100785.02;126224;1099;104152;-78
2021/09/16 07:55:35;;;;;;;19.37;10.50;;;;;;;21.66;62.20;100789.39;126268;1099;104150;-78
2021/09/16 07:58:08;;;;;;;25.90;11.90;;;;;;;21.75;60.90;100791.14;126205;1099;104273;-77
2021/09/16 08:00:41;;;;;;;23.83;11.15;;;;;;;21.76;60.39;100793.80;126191;1099;104203;-77
2021/09/16 08:03:20;;;;;;;23.30;11.40;;;;;;;21.80;60.00;100798.23;126271;1098;104348;-78
2021/09/16 08:05:53;;;;;;;23.17;10.70;;;;;;;21.93;59.77;100793.70;126257;1099;104150;-76
2021/09/16 08:08:26;;;;;;;23.30;10.40;;;;;;;21.99;58.77;100788.32;126218;1097;105692;-78
2021/09/16 08:10:59;;;;;;;22.20;9.93;;;;;;;22.08;58.99;100788.25;126122;1099;104175;-78
2021/09/16 08:13:39;;;;;;;17.03;8.00;;;;;;;22.20;57.79;100789.93;126311;1099;104191;-79
2021/09/16 08:16:17;;;;;;;19.10;9.20;;;;;;;22.33;58.02;100787.20;126149;1099;104153;-78
2021/09/16 08:18:50;;;;;;;19.80;9.13;;;;;;;22.50;58.87;100782.61;126289;1098;104226;-77
2021/09/16 08:21:27;;;;;;;18.50;8.87;;;;;;;22.76;57.79;100787.69;126188;1099;104414;-79
2021/09/16 08:24:01;;;;;;;14.13;6.43;;;;;;;22.96;56.66;100786.61;126211;1099;104178;-78
2021/09/16 08:26:35;;;;;;;16.83;7.50;;;;;;;23.08;56.74;100780.24;126209;1099;104216;-78
2021/09/16 08:29:09;;;;;;;16.20;7.90;;;;;;;23.13;55.58;100781.97;126184;1099;104144;-77
2021/09/16 08:31:46;;;;;;;22.17;8.57;;;;;;;23.17;55.40;100787.30;126273;1099;104165;-78
2021/09/16 08:34:19;;;;;;;18.27;7.30;;;;;;;23.26;55.51;100780.03;126262;1099;104223;-78
2021/09/16 08:36:51;;;;;;;17.53;8.13;;;;;;;23.21;55.65;100771.17;126154;1099;104217;-76
2021/09/16 08:39:24;;;;;;;16.57;7.47;;;;;;;23.30;55.37;100775.55;126078;1099;107822;-77
2021/09/16 08:41:57;;;;;;;20.87;7.73;;;;;;;23.39;55.09;100774.52;126218;1098;104185;-76
2021/09/16 08:44:31;;;;;;;18.03;8.07;;;;;;;23.53;54.42;100766.30;126157;1099;104175;-77
2021/09/16 08:47:07;;;;;;;21.80;8.80;;;;;;;23.60;54.18;100768.88;126241;1099;104239;-77
2021/09/16 08:49:42;;;;;;;19.60;8.03;;;;;;;23.67;54.10;100767.91;126174;1098;118743;-78
2021/09/16 08:52:16;;;;;;;18.80;8.10;;;;;;;23.77;53.78;100765.97;126130;1099;104146;-80
2021/09/16 08:54:46;;;;;;;;;;;;;;;23.82;51.69;100769.45;126237;1099;104242;-80
2021/09/16 08:57:20;;;;;;;15.27;7.70;;;;;;;23.82;53.29;100763.22;126315;1098;104169;-78
2021/09/16 08:59:52;;;;;;;17.35;8.00;;;;;;;23.86;53.30;100759.63;126240;1099;104171;-76
2021/09/16 09:02:27;;;;;;;14.60;7.30;;;;;;;23.86;52.84;100764.99;126322;1099;104239;-78
2021/09/16 09:05:02;;;;;;;17.87;7.30;;;;;;;23.95;52.53;100763.95;126328;1098;104137;-78
2021/09/16 09:07:45;;;;;;;18.80;8.43;;;;;;;23.99;51.57;100758.52;126332;1098;104137;-77
2021/09/16 09:10:36;;;;;;;19.07;8.87;;;;;;;24.07;51.94;100755.71;126097;1099;113326;-76
2021/09/16 09:13:11;;;;;;;18.03;7.80;;;;;;;24.15;51.95;100759.18;126082;1098;104172;-77
2021/09/16 09:15:48;;;;;;;15.37;7.50;;;;;;;24.22;51.50;100755.47;126143;1099;104194;-76
2021/09/16 09:18:21;;;;;;;22.30;8.20;;;;;;;24.23;51.47;100757.25;126073;1098;104153;-76
2021/09/16 09:21:03;;;;;;;16.63;7.70;;;;;;;24.27;51.28;100759.88;126171;1099;104197;-77
2021/09/16 09:23:45;;;;;;;13.73;6.87;;;;;;;24.36;51.12;100759.72;126164;1098;104191;-77
2021/09/16 09:26:28;;;;;;;18.40;7.30;;;;;;;24.43;51.19;100758.69;126170;1099;104137;-77
2021/09/16 09:29:20;;;;;;;17.73;7.87;;;;;;;24.52;51.04;100758.52;126192;1099;104220;-76
2021/09/16 09:31:59;;;;;;;19.50;7.87;;;;;;;24.59;50.74;100762.03;126027;1099;104204;-77
2021/09/16 09:34:37;;;;;;;16.63;7.70;;;;;;;24.51;50.20;100755.86;125971;1099;104198;-77
2021/09/16 09:37:16;;;;;;;18.97;7.97;;;;;;;24.53;50.28;100751.38;126190;1099;104831;-80
2021/09/16 09:40:04;;;;;;;17.37;7.60;;;;;;;24.61;50.31;100744.10;126118;1099;104159;-77
2021/09/16 09:42:50;;;;;;;17.67;7.87;;;;;;;24.68;50.04;100751.14;126206;1099;104312;-80
2021/09/16 09:45:31;;;;;;;16.02;7.95;;;;;;;24.75;49.66;100733.98;126208;1099;104947;-78
2021/09/16 09:48:20;;;;;;;15.27;7.43;;;;;;;24.79;50.01;100732.11;126012;1099;104146;-80
2021/09/16 09:50:56;;;;;;;17.03;8.20;;;;;;;24.86;49.78;100732.91;126145;1099;105691;-79
2021/09/16 09:53:44;;;;;;;17.13;8.47;;;;;;;24.91;49.21;100731.00;126206;1099;104213;-76
2021/09/16 09:56:28;;;;;;;17.27;8.17;;;;;;;24.90;49.20;100730.12;125909;1098;104149;-78
2021/09/16 09:59:12;;;;;;;18.83;8.37;;;;;;;24.93;49.15;100730.06;125992;1099;104305;-77
2021/09/16 10:01:48;;;;;;;16.80;7.90;;;;;;;25.01;48.88;100721.86;126021;1099;104322;-77
2021/09/16 10:04:28;;;;;;;20.67;8.93;;;;;;;25.07;48.81;100719.05;125276;1102;104175;-79
2021/09/16 10:07:05;;;;;;;18.73;8.90;;;;;;;25.14;47.95;100714.42;125251;1099;104360;-78
2021/09/16 10:09:39;;;;;;;15.17;8.20;;;;;;;25.18;48.07;100705.41;125731;1099;104134;-78
2021/09/16 10:12:12;;;;;;;17.57;8.07;;;;;;;25.19;47.63;100717.02;125150;1099;104146;-79
2021/09/16 10:14:54;;;;;;;25.03;8.77;;;;;;;25.21;47.35;100717.86;125996;1099;104222;-81
2021/09/16 10:17:26;;;;;;;15.93;8.07;;;;;;;25.23;47.81;100724.10;125037;1099;104287;-78
2021/09/16 10:20:13;;;;;;;15.33;7.63;;;;;;;25.29;47.36;100726.66;125148;1099;104242;-78
2021/09/16 10:22:48;;;;;;;18.53;8.27;;;;;;;25.36;47.33;100722.05;125838;1099;104396;-78
2021/09/16 10:25:22;;;;;;;16.27;8.60;;;;;;;25.35;47.30;100714.91;125186;1099;104354;-79
2021/09/16 10:28:15;;;;;;;16.33;8.00;;;;;;;25.29;47.01;100713.23;125734;1099;104171;-78
2021/09/16 10:30:50;;;;;;;16.20;7.85;;;;;;;25.31;46.77;100708.73;125494;1099;104139;-79
2021/09/16 10:33:31;;;;;;;;;;;;;;;25.36;46.54;100706.81;125958;1099;105290;-80
2021/09/16 10:36:17;;;;;;;20.97;7.67;;;;;;;25.43;46.88;100705.77;125973;1099;104300;-79
2021/09/16 10:38:53;;;;;;;16.43;8.17;;;;;;;25.52;46.92;100701.97;125789;1099;104393;-79
2021/09/16 10:41:29;;;;;;;14.40;7.60;;;;;;;25.55;46.49;100699.22;126019;1099;104229;-80
2021/09/16 10:44:22;;;;;;;14.73;8.03;;;;;;;25.47;45.90;100704.77;126238;1098;104162;-80
2021/09/16 10:47:00;;;;;;;16.03;7.97;;;;;;;25.50;45.96;100702.95;126081;1099;104175;-79
2021/09/16 10:49:33;;;;;;;17.53;8.30;;;;;;;25.42;45.61;100698.62;125968;1099;104320;-79
2021/09/16 10:52:22;;;;;;;14.58;7.92;;;;;;;25.43;45.72;100697.71;126261;1099;105678;-81
2021/09/16 10:55:02;;;;;;;16.57;7.50;;;;;;;25.45;45.89;100698.55;126184;1098;104286;-80
2021/09/16 10:57:39;;;;;;;16.80;7.93;;;;;;;25.52;45.64;100698.41;126144;1099;104124;-80
2021/09/16 11:00:16;;;;;;;17.93;7.70;;;;;;;25.60;45.59;100693.73;126288;1099;104176;-79
2021/09/16 11:03:03;;;;;;;17.83;8.07;;;;;;;25.62;45.43;100686.55;126254;1099;119619;-78
2021/09/16 11:05:46;;;;;;;20.70;8.40;;;;;;;25.70;45.64;100687.23;126340;1097;104147;-77
2021/09/16 11:08:21;;;;;;;15.87;7.97;;;;;;;25.63;44.94;100681.13;126235;1099;104147;-79
2021/09/16 11:14:39;;;;;;;17.17;7.63;;;;;;;25.74;45.02;100671.91;126228;1098;104163;-80
2021/09/16 11:17:12;;;;;;;;;;;;;;;25.74;44.57;100670.13;126362;1098;104178;-80
2021/09/16 11:19:49;;;;;;;20.13;8.23;;;;;;;25.79;45.20;100675.39;126131;1099;104155;-78
2021/09/16 11:22:27;;;;;;;20.87;8.33;;;;;;;25.89;45.07;100676.03;126078;1099;104242;-78
2021/09/16 11:25:05;;;;;;;15.90;7.67;;;;;;;25.90;44.33;100676.00;126132;1099;104171;-79
2021/09/16 11:30:45;;;;;;;16.90;8.03;;;;;;;25.85;44.04;100661.77;125225;1102;104306;-77
2021/09/16 11:33:20;;;;;;;15.13;8.37;;;;;;;25.80;43.85;100663.70;125061;1102;104306;-78